createdAt,value
2019-03-17T01:12:20.219Z,3.00
2019-03-17T01:17:24.881Z,3.00
2019-03-17T01:22:27.796Z,3.00
2019-03-17T01:27:30.315Z,3.10
2019-03-17T01:32:32.783Z,3.10
2019-03-17T01:37:35.343Z,3.20
2019-03-17T01:42:37.830Z,3.20
2019-03-17T01:47:41.483Z,3.20
2019-03-17T01:52:45.340Z,3.10
2019-03-17T01:57:48.866Z,3.00
2019-03-17T02:02:51.262Z,3.00
2019-03-17T02:07:53.860Z,2.90
2019-03-17T02:12:56.567Z,2.90
2019-03-17T02:18:00.311Z,2.90
2019-03-17T02:23:03.076Z,2.90
2019-03-17T02:28:06.532Z,2.80
2019-03-17T02:33:09.898Z,2.70
2019-03-17T02:38:13.373Z,2.60
2019-03-17T02:43:15.826Z,2.50
2019-03-17T02:48:18.851Z,2.50
2019-03-17T02:53:21.355Z,2.50
2019-03-17T02:58:25.510Z,2.40
2019-03-17T03:03:28.087Z,2.50
2019-03-17T03:08:30.536Z,2.40
2019-03-17T03:13:33.916Z,2.50
2019-03-17T03:18:36.411Z,2.60
2019-03-17T03:23:38.909Z,2.60
2019-03-17T03:28:41.944Z,2.50
2019-03-17T03:33:44.546Z,2.40
2019-03-17T03:38:46.940Z,2.20
2019-03-17T03:43:50.626Z,2.20
2019-03-17T03:48:53.161Z,2.00
2019-03-17T03:53:55.710Z,1.90
2019-03-17T03:58:58.645Z,1.80
2019-03-17T04:04:01.341Z,1.70
2019-03-17T04:09:06.168Z,1.70
2019-03-17T04:14:09.419Z,1.60
2019-03-17T04:19:12.761Z,1.70
2019-03-17T04:24:15.273Z,1.80
2019-03-17T04:29:18.962Z,1.80
2019-03-17T04:34:22.379Z,1.90
2019-03-17T04:39:24.826Z,1.90
2019-03-17T04:44:27.297Z,2.00
2019-03-17T04:49:30.925Z,2.00
2019-03-17T04:54:33.990Z,2.10
2019-03-17T04:59:36.621Z,2.10
2019-03-17T05:04:40.236Z,2.20
2019-03-17T05:09:43.630Z,2.30
2019-03-17T05:14:46.158Z,2.30
2019-03-17T05:19:48.627Z,2.50
2019-03-17T05:24:51.106Z,2.70
2019-03-17T05:29:54.831Z,2.70
2019-03-17T05:34:58.335Z,2.80
2019-03-17T05:40:01.396Z,2.90
2019-03-17T05:45:05.169Z,3.00
2019-03-17T05:50:08.193Z,3.00
2019-03-17T05:55:11.072Z,3.20
2019-03-17T06:00:14.643Z,3.40
2019-03-17T06:05:18.225Z,3.60
2019-03-17T06:10:21.009Z,3.70
2019-03-17T06:15:23.490Z,3.90
2019-03-17T06:20:25.954Z,4.00
2019-03-17T06:25:29.769Z,4.20
2019-03-17T06:30:32.301Z,4.40
2019-03-17T06:35:35.036Z,4.70
2019-03-17T06:40:37.641Z,5.00
2019-03-17T06:45:40.110Z,5.20
2019-03-17T06:50:42.790Z,5.40
2019-03-17T06:55:45.824Z,5.70
2019-03-17T07:00:49.416Z,6.00
2019-03-17T07:05:52.307Z,6.30
2019-03-17T07:10:55.519Z,6.70
2019-03-17T07:15:58.265Z,7.10
2019-03-17T07:21:00.688Z,7.50
2019-03-17T07:26:03.615Z,8.00
2019-03-17T07:31:07.764Z,8.40
2019-03-17T07:36:11.172Z,8.80
2019-03-17T07:41:13.849Z,9.30
2019-03-17T07:46:16.257Z,9.80
2019-03-17T07:51:20.327Z,10.30
2019-03-17T07:56:23.302Z,10.70
2019-03-17T08:01:25.692Z,11.00
2019-03-17T08:06:29.435Z,11.30
2019-03-17T08:11:32.109Z,11.70
2019-03-17T08:16:34.672Z,12.20
2019-03-17T08:21:39.771Z,12.60
2019-03-17T08:26:45.711Z,13.00
2019-03-17T08:31:48.086Z,13.30
2019-03-17T08:36:52.675Z,13.70
2019-03-17T08:41:55.358Z,14.10
2019-03-17T08:46:58.463Z,14.40
2019-03-17T08:52:01.516Z,14.50
2019-03-17T08:57:03.955Z,14.60
2019-03-17T09:02:06.379Z,14.70
2019-03-17T09:07:10.361Z,14.70
2019-03-17T09:12:12.948Z,14.80
2019-03-17T09:17:15.376Z,15.00
2019-03-17T09:22:17.777Z,15.20
2019-03-17T09:27:21.180Z,15.40
2019-03-17T09:32:24.125Z,15.50
2019-03-17T09:37:26.828Z,15.80
2019-03-17T09:42:30.320Z,16.10
2019-03-17T09:47:32.792Z,16.30
2019-03-17T09:52:35.389Z,16.40
2019-03-17T09:57:37.837Z,16.40
2019-03-17T10:02:40.284Z,16.50
2019-03-17T10:07:43.248Z,16.60
2019-03-17T10:12:46.773Z,16.70
2019-03-17T10:17:49.385Z,16.70
2019-03-17T10:22:52.366Z,16.80
2019-03-17T10:27:55.989Z,16.90
2019-03-17T10:32:58.394Z,17.10
2019-03-17T10:38:01.502Z,17.30
2019-03-17T10:43:03.865Z,17.40
2019-03-17T10:48:06.886Z,17.60
2019-03-17T10:53:09.251Z,17.60
2019-03-17T10:58:14.059Z,17.70
2019-03-17T11:03:16.590Z,17.90
2019-03-17T11:08:19.155Z,18.00
2019-03-17T11:13:21.711Z,18.40
2019-03-17T11:18:24.184Z,18.70
2019-03-17T11:23:27.206Z,19.30
2019-03-17T11:28:31.449Z,19.70
2019-03-17T11:33:34.120Z,19.80
2019-03-17T11:38:36.882Z,19.90
2019-03-17T11:43:40.333Z,20.10
2019-03-17T11:48:43.652Z,20.50
2019-03-17T11:53:46.315Z,20.60
2019-03-17T11:58:48.716Z,20.70
2019-03-17T12:03:51.360Z,20.80
2019-03-17T12:08:54.243Z,20.40
2019-03-17T12:13:57.775Z,20.60
2019-03-17T12:19:00.587Z,20.90
2019-03-17T12:24:03.252Z,20.80
2019-03-17T12:29:06.130Z,21.00
2019-03-17T12:34:08.812Z,20.60
2019-03-17T12:39:12.085Z,20.60
2019-03-17T12:44:14.819Z,20.50
2019-03-17T12:49:18.151Z,20.40
2019-03-17T12:54:20.600Z,20.30
2019-03-17T13:27:31.954Z,19.60
2019-03-17T13:44:00.199Z,18.80
2019-03-17T13:49:04.771Z,18.70
2019-03-17T13:54:08.175Z,18.70
2019-03-17T13:59:10.608Z,18.70
2019-03-17T14:04:13.215Z,18.70
2019-03-17T14:15:10.806Z,18.70
2019-03-17T14:20:20.538Z,18.60
2019-03-17T14:25:26.388Z,18.50
2019-03-17T14:41:55.364Z,17.90
2019-03-17T14:46:59.192Z,17.90
2019-03-17T14:52:19.934Z,17.90
2019-03-17T14:57:42.807Z,17.90
2019-03-17T15:19:19.660Z,17.80
2019-03-17T15:24:22.344Z,17.70
2019-03-17T15:29:24.884Z,17.50
2019-03-17T15:34:27.336Z,17.40
2019-03-17T15:39:29.752Z,17.40
2019-03-17T15:44:32.301Z,17.40
2019-03-17T15:49:34.882Z,17.20
2019-03-17T15:54:38.500Z,17.10
2019-03-17T15:59:40.964Z,16.80
2019-03-17T16:04:44.697Z,16.40
2019-03-17T16:09:47.205Z,16.10
2019-03-17T16:14:49.683Z,15.70
2019-03-17T16:19:52.177Z,15.20
2019-03-17T16:24:54.678Z,14.40
2019-03-17T16:36:00.286Z,11.90
2019-03-17T16:41:02.711Z,11.30
2019-03-17T16:46:05.091Z,10.80
2019-03-17T16:51:16.798Z,10.50
2019-03-17T16:56:21.415Z,9.80
2019-03-17T17:12:08.965Z,8.60
2019-03-17T17:28:06.849Z,8.10
2019-03-17T17:33:17.331Z,7.90
2019-03-17T17:43:43.135Z,7.70
2019-03-17T17:48:45.723Z,7.70
2019-03-17T17:53:49.698Z,7.70
2019-03-17T17:58:52.516Z,7.70
2019-03-17T18:03:56.448Z,7.70
2019-03-17T18:09:01.250Z,7.70
2019-03-17T18:14:13.842Z,7.70
2019-03-17T18:19:18.044Z,7.70
2019-03-17T18:24:20.892Z,7.80
2019-03-17T18:29:23.484Z,7.90
2019-03-17T18:34:27.309Z,7.90
2019-03-17T18:39:31.775Z,7.90
2019-03-17T18:44:36.048Z,8.00
2019-03-17T18:49:46.589Z,8.00
2019-03-17T18:54:50.107Z,7.90
2019-03-17T18:59:54.013Z,8.00
2019-03-17T19:04:58.048Z,8.00
2019-03-17T19:10:03.090Z,8.00
2019-03-17T19:15:13.135Z,8.00
2019-03-17T19:20:18.074Z,8.00
2019-03-17T19:25:23.374Z,8.10
2019-03-17T19:30:27.519Z,8.10
2019-03-17T19:35:33.301Z,8.00
2019-03-17T19:40:40.720Z,8.00
2019-03-17T19:45:45.542Z,8.00
2019-03-17T19:50:50.925Z,8.10
2019-03-17T19:55:56.514Z,8.10
2019-03-17T20:01:03.221Z,8.00
2019-03-17T20:06:13.029Z,8.00
2019-03-17T20:11:17.712Z,8.00
2019-03-17T20:16:21.986Z,8.00
2019-03-17T20:21:26.808Z,8.00
2019-03-17T20:26:32.805Z,8.00
2019-03-17T20:31:41.374Z,8.00
2019-03-17T20:36:49.821Z,7.90
2019-03-17T20:41:54.497Z,7.80
2019-03-17T20:46:59.035Z,7.60
2019-03-17T20:52:10.777Z,7.50
2019-03-17T20:57:19.033Z,7.50
2019-03-17T21:02:23.653Z,7.40
2019-03-17T21:07:30.440Z,7.30
2019-03-17T21:12:37.381Z,7.20
2019-03-17T21:17:42.124Z,7.10
2019-03-17T21:22:50.946Z,7.10
2019-03-17T21:27:53.460Z,7.00
2019-03-17T21:32:56.588Z,6.90
2019-03-17T21:38:00.493Z,6.90
2019-03-17T21:43:04.607Z,6.90
2019-03-17T21:48:07.165Z,6.90
2019-03-17T21:53:09.770Z,6.90
2019-03-17T21:58:12.207Z,6.90
2019-03-17T22:03:17.755Z,6.90
2019-03-17T22:08:22.129Z,6.90
2019-03-17T22:13:27.071Z,6.90
2019-03-17T22:18:29.611Z,6.90
2019-03-17T22:23:34.017Z,7.00
2019-03-17T22:28:38.524Z,7.10
2019-03-17T22:33:44.047Z,7.20
2019-03-17T22:38:46.702Z,7.20
2019-03-17T22:43:49.140Z,7.30
2019-03-17T22:48:51.534Z,7.30
2019-03-17T22:53:54.600Z,7.30
2019-03-17T22:58:56.992Z,7.30
2019-03-17T23:03:59.622Z,7.40
2019-03-17T23:09:02.014Z,7.40
2019-03-17T23:14:05.797Z,7.50
2019-03-17T23:19:08.211Z,7.50
2019-03-17T23:24:12.163Z,7.40
2019-03-17T23:29:14.664Z,7.40
2019-03-17T23:34:17.148Z,7.30
2019-03-17T23:39:19.674Z,7.30
2019-03-17T23:44:23.139Z,7.30
2019-03-17T23:49:25.526Z,7.20
2019-03-17T23:54:28.507Z,7.10
2019-03-17T23:59:31.147Z,7.00
